createdAt,value
2023-04-20T00:02:04.901Z,6.55
2023-04-20T00:04:36.693Z,6.80
2023-04-20T00:07:08.287Z,4.05
2023-04-20T00:09:39.872Z,4.63
2023-04-20T00:12:11.369Z,4.63
2023-04-20T00:14:42.873Z,4.78
2023-04-20T00:17:14.449Z,4.63
2023-04-20T00:19:46.398Z,4.25
2023-04-20T00:22:20.024Z,2.92
2023-04-20T00:24:51.907Z,5.22
2023-04-20T00:27:23.501Z,4.70
2023-04-20T00:29:55.004Z,4.40
2023-04-20T00:32:28.421Z,5.57
2023-04-20T00:35:00.096Z,4.78
2023-04-20T00:37:31.690Z,3.72
2023-04-20T00:40:04.050Z,3.72
2023-04-20T00:42:35.873Z,3.92
2023-04-20T00:45:09.998Z,3.53
2023-04-20T00:47:41.635Z,4.95
2023-04-20T00:50:13.244Z,4.10
2023-04-20T00:52:45.601Z,4.35
2023-04-20T00:55:21.276Z,5.07
2023-04-20T00:57:53.022Z,5.00
2023-04-20T01:00:26.470Z,5.15
2023-04-20T01:02:58.344Z,4.70
2023-04-20T01:05:30.001Z,5.47
2023-04-20T01:08:01.686Z,4.78
2023-04-20T01:10:33.240Z,7.20
2023-04-20T01:13:04.871Z,5.65
2023-04-20T01:15:36.702Z,5.05
2023-04-20T01:18:09.622Z,5.95
2023-04-20T01:20:41.333Z,6.72
2023-04-20T01:23:13.052Z,7.07
2023-04-20T01:25:44.610Z,7.72
2023-04-20T01:28:16.274Z,5.63
2023-04-20T01:30:47.912Z,6.30
2023-04-20T01:33:21.830Z,5.78
2023-04-20T01:35:56.604Z,6.60
2023-04-20T01:38:28.357Z,5.30
2023-04-20T01:41:02.739Z,6.60
2023-04-20T01:43:36.409Z,5.03
2023-04-20T01:46:08.003Z,6.70
2023-04-20T01:48:41.722Z,5.57
2023-04-20T01:51:13.259Z,5.80
2023-04-20T01:53:44.789Z,7.15
2023-04-20T01:56:16.512Z,7.75
2023-04-20T01:58:48.175Z,6.50
2023-04-20T02:01:19.995Z,7.75
2023-04-20T02:03:51.801Z,6.50
2023-04-20T02:06:23.693Z,8.43
2023-04-20T02:08:55.288Z,6.95
2023-04-20T02:11:26.870Z,7.35
2023-04-20T02:13:58.453Z,6.63
2023-04-20T02:16:30.516Z,8.90
2023-04-20T02:19:02.909Z,7.32
2023-04-20T02:21:34.643Z,7.70
2023-04-20T02:24:06.816Z,6.63
2023-04-20T02:26:38.548Z,7.43
2023-04-20T02:29:10.367Z,7.07
2023-04-20T02:31:42.180Z,7.40
2023-04-20T02:34:13.878Z,10.13
2023-04-20T02:36:45.674Z,8.27
2023-04-20T02:39:17.553Z,7.63
2023-04-20T02:41:49.299Z,6.05
2023-04-20T02:44:20.805Z,6.68
2023-04-20T02:46:52.559Z,7.38
2023-04-20T02:49:24.341Z,7.90
2023-04-20T02:51:58.409Z,7.78
2023-04-20T02:54:29.954Z,8.70
2023-04-20T02:57:01.614Z,9.15
2023-04-20T02:59:33.193Z,7.97
2023-04-20T03:02:07.767Z,8.13
2023-04-20T03:04:41.556Z,9.48
2023-04-20T03:07:15.240Z,9.23
2023-04-20T03:09:51.199Z,8.40
2023-04-20T03:12:23.435Z,9.07
2023-04-20T03:14:54.998Z,8.75
2023-04-20T03:17:26.554Z,8.35
2023-04-20T03:19:58.137Z,12.90
2023-04-20T03:22:29.716Z,9.20
2023-04-20T03:25:01.225Z,10.18
2023-04-20T03:27:32.793Z,10.20
2023-04-20T03:30:05.208Z,10.15
2023-04-20T03:32:37.250Z,11.13
2023-04-20T03:35:09.462Z,8.30
2023-04-20T03:37:44.076Z,9.50
2023-04-20T03:40:15.815Z,9.25
2023-04-20T03:42:47.376Z,10.30
2023-04-20T03:45:20.347Z,9.15
2023-04-20T03:47:52.554Z,8.70
2023-04-20T03:50:24.373Z,10.52
2023-04-20T03:52:56.670Z,10.30
2023-04-20T03:55:28.251Z,12.70
2023-04-20T03:57:59.818Z,13.07
2023-04-20T04:00:31.370Z,9.52
2023-04-20T04:03:03.327Z,10.80
2023-04-20T04:05:35.237Z,12.45
2023-04-20T04:08:07.009Z,11.52
2023-04-20T04:10:38.649Z,13.40
2023-04-20T04:13:10.259Z,12.15
2023-04-20T04:15:41.873Z,13.20
2023-04-20T04:18:13.429Z,12.88
2023-04-20T04:20:45.067Z,13.07
2023-04-20T04:23:16.732Z,12.43
2023-04-20T04:25:48.570Z,10.68
2023-04-20T04:28:20.732Z,14.32
2023-04-20T04:30:54.485Z,14.68
2023-04-20T04:33:29.517Z,15.32
2023-04-20T04:36:01.523Z,14.00
2023-04-20T04:38:33.402Z,12.48
2023-04-20T04:41:05.153Z,14.63
2023-04-20T04:43:39.757Z,14.90
2023-04-20T04:46:20.594Z,14.00
2023-04-20T04:48:52.297Z,12.32
2023-04-20T04:51:23.868Z,12.00
2023-04-20T04:53:55.592Z,14.75
2023-04-20T04:56:27.316Z,14.05
2023-04-20T04:58:58.887Z,11.95
2023-04-20T05:01:30.452Z,11.95
2023-04-20T05:04:02.264Z,14.55
2023-04-20T05:06:33.928Z,14.85
2023-04-20T05:09:05.603Z,14.15
2023-04-20T05:11:37.264Z,13.32
2023-04-20T05:14:09.136Z,13.07
2023-04-20T05:16:40.774Z,12.95
2023-04-20T05:19:12.384Z,13.60
2023-04-20T05:21:44.164Z,14.18
2023-04-20T05:24:15.698Z,13.23
2023-04-20T05:26:47.342Z,13.77
2023-04-20T05:29:19.990Z,13.38
2023-04-20T05:31:51.831Z,12.23
2023-04-20T05:34:23.405Z,12.05
2023-04-20T05:36:59.227Z,12.82
2023-04-20T05:39:30.878Z,11.93
2023-04-20T05:42:02.464Z,11.88
2023-04-20T05:44:36.426Z,12.48
2023-04-20T05:47:08.703Z,10.82
2023-04-20T05:49:40.747Z,9.85
2023-04-20T05:52:12.331Z,10.40
2023-04-20T05:54:43.910Z,15.30
2023-04-20T05:57:15.699Z,15.02
2023-04-20T05:59:47.318Z,10.75
2023-04-20T06:02:18.978Z,10.13
2023-04-20T06:04:50.752Z,13.63
2023-04-20T06:07:22.393Z,9.65
2023-04-20T06:09:54.268Z,13.68
2023-04-20T06:12:26.787Z,11.73
2023-04-20T06:15:01.211Z,10.80
2023-04-20T06:17:36.364Z,9.40
2023-04-20T06:20:10.523Z,11.40
2023-04-20T06:22:46.968Z,11.00
2023-04-20T06:25:21.803Z,9.05
2023-04-20T06:27:53.379Z,11.07
2023-04-20T06:30:32.240Z,9.07
2023-04-20T06:33:03.984Z,8.63
2023-04-20T06:35:36.001Z,8.20
2023-04-20T06:38:07.554Z,10.27
2023-04-20T06:40:39.176Z,9.48
2023-04-20T06:43:10.954Z,12.13
2023-04-20T06:45:42.604Z,11.80
2023-04-20T06:48:29.984Z,9.82
2023-04-20T06:51:03.554Z,10.90
2023-04-20T06:53:35.038Z,10.05
2023-04-20T06:56:07.035Z,8.40
2023-04-20T06:58:38.551Z,8.70
2023-04-20T07:01:10.220Z,10.10
2023-04-20T07:03:42.007Z,8.00
2023-04-20T07:06:14.049Z,8.85
2023-04-20T07:08:45.930Z,8.10
2023-04-20T07:11:17.460Z,8.40
2023-04-20T07:13:49.262Z,9.02
2023-04-20T07:16:20.899Z,6.07
2023-04-20T07:18:53.111Z,6.78
2023-04-20T07:21:25.603Z,8.60
2023-04-20T07:23:59.270Z,6.57
2023-04-20T07:26:31.166Z,6.55
2023-04-20T07:29:03.675Z,5.57
2023-04-20T07:31:35.713Z,3.85
2023-04-20T07:34:07.389Z,5.68
2023-04-20T07:36:39.157Z,4.47
2023-04-20T07:39:10.797Z,5.05
2023-04-20T07:41:42.607Z,3.42
2023-04-20T07:44:14.409Z,3.03
2023-04-20T07:46:50.163Z,3.60
2023-04-20T07:49:21.894Z,3.70
2023-04-20T07:51:56.912Z,4.22
2023-04-20T07:54:35.970Z,4.43
2023-04-20T07:57:09.764Z,2.95
2023-04-20T07:59:42.093Z,3.78
2023-04-20T08:02:13.884Z,2.83
2023-04-20T08:04:46.439Z,2.88
2023-04-20T08:07:18.428Z,2.13
2023-04-20T08:09:50.058Z,2.60
2023-04-20T08:12:21.636Z,2.63
2023-04-20T08:14:53.397Z,1.85
2023-04-20T08:17:24.995Z,2.90
2023-04-20T08:19:56.568Z,2.67
2023-04-20T08:22:30.172Z,2.78
2023-04-20T08:25:02.223Z,1.63
2023-04-20T08:27:33.802Z,2.35
2023-04-20T08:30:09.909Z,2.60
2023-04-20T08:32:41.581Z,1.92
2023-04-20T08:35:13.501Z,2.20
2023-04-20T08:37:45.155Z,2.30
2023-04-20T08:40:19.919Z,2.13
2023-04-20T08:42:51.392Z,2.33
2023-04-20T08:45:23.108Z,3.03
2023-04-20T08:47:56.365Z,2.03
2023-04-20T08:50:27.875Z,1.88
2023-04-20T08:52:59.424Z,3.25
2023-04-20T08:55:31.021Z,2.08
2023-04-20T08:58:02.503Z,3.13
2023-04-20T09:00:34.385Z,1.98
2023-04-20T09:03:06.479Z,3.42
2023-04-20T09:05:39.926Z,2.47
2023-04-20T09:08:11.473Z,4.22
2023-04-20T09:10:44.969Z,1.88
2023-04-20T09:13:23.536Z,3.00
2023-04-20T09:15:55.407Z,1.73
2023-04-20T09:18:27.717Z,2.25
2023-04-20T09:21:08.761Z,2.22
2023-04-20T09:23:40.755Z,2.72
2023-04-20T09:26:18.875Z,2.55
2023-04-20T09:28:50.627Z,1.80
2023-04-20T09:31:23.319Z,1.98
2023-04-20T09:34:02.671Z,1.70
2023-04-20T09:36:50.362Z,1.80
2023-04-20T09:39:24.516Z,2.35
2023-04-20T09:42:05.382Z,1.52
2023-04-20T09:44:39.107Z,1.27
2023-04-20T09:47:18.911Z,0.50
2023-04-20T09:49:50.807Z,0.38
2023-04-20T09:52:24.097Z,1.55
2023-04-20T09:54:57.389Z,0.10
2023-04-20T09:57:31.394Z,0.47
2023-04-20T10:00:07.114Z,0.00
2023-04-20T10:02:39.765Z,0.00
2023-04-20T10:05:11.351Z,0.00
2023-04-20T10:07:44.064Z,1.40
2023-04-20T10:10:16.470Z,0.25
2023-04-20T10:12:55.479Z,0.00
2023-04-20T10:15:39.375Z,0.10
2023-04-20T10:18:18.961Z,0.00
2023-04-20T10:20:52.736Z,0.00
2023-04-20T10:23:24.345Z,0.00
2023-04-20T10:26:01.003Z,0.20
2023-04-20T10:28:41.582Z,0.00
2023-04-20T10:31:15.039Z,0.00
2023-04-20T10:33:54.619Z,0.10
2023-04-20T10:36:32.155Z,0.00
2023-04-20T10:39:19.789Z,0.00
2023-04-20T10:42:01.601Z,0.20
2023-04-20T10:44:35.347Z,1.80
2023-04-20T10:47:06.960Z,0.08
2023-04-20T10:49:38.569Z,0.28
2023-04-20T10:52:10.156Z,0.28
2023-04-20T10:54:41.709Z,1.10
2023-04-20T10:57:16.536Z,0.00
2023-04-20T10:59:48.062Z,0.43
2023-04-20T11:02:19.745Z,0.10
2023-04-20T11:04:53.130Z,0.00
2023-04-20T11:07:24.752Z,0.00
2023-04-20T11:09:56.711Z,0.10
2023-04-20T11:12:40.592Z,0.30
2023-04-20T11:15:12.170Z,0.00
2023-04-20T11:17:44.019Z,0.20
2023-04-20T11:20:17.465Z,0.00
2023-04-20T11:23:00.087Z,0.60
2023-04-20T11:25:31.876Z,1.30
2023-04-20T11:28:08.791Z,0.93
2023-04-20T11:30:43.741Z,0.43
2023-04-20T11:33:24.598Z,0.57
2023-04-20T11:35:58.315Z,0.30
2023-04-20T11:38:32.246Z,0.68
2023-04-20T11:41:07.717Z,0.10
2023-04-20T11:43:39.320Z,1.13
2023-04-20T11:46:20.392Z,0.10
2023-04-20T11:48:52.020Z,0.70
2023-04-20T11:51:23.458Z,0.32
2023-04-20T11:53:54.890Z,0.20
2023-04-20T11:56:26.410Z,0.00
2023-04-20T11:58:57.989Z,1.00
2023-04-20T12:01:29.764Z,0.40
2023-04-20T12:04:02.188Z,0.00
2023-04-20T12:06:34.248Z,0.20
2023-04-20T12:09:08.820Z,0.40
2023-04-20T12:11:40.870Z,0.10
2023-04-20T12:14:12.370Z,0.20
2023-04-20T12:16:43.927Z,0.43
2023-04-20T12:19:16.140Z,0.25
2023-04-20T12:21:48.005Z,0.30
2023-04-20T12:24:19.675Z,1.20
2023-04-20T12:26:51.202Z,0.50
2023-04-20T12:29:23.381Z,0.30
2023-04-20T12:31:55.045Z,0.25
2023-04-20T12:34:26.686Z,0.20
2023-04-20T12:36:58.162Z,0.20
2023-04-20T12:39:29.635Z,1.17
2023-04-20T12:42:02.380Z,4.55
2023-04-20T12:44:34.097Z,0.40
2023-04-20T12:47:05.740Z,0.45
2023-04-20T12:49:37.284Z,1.38
2023-04-20T12:52:09.023Z,0.75
2023-04-20T12:54:43.402Z,0.88
2023-04-20T12:57:15.525Z,1.08
2023-04-20T12:59:49.961Z,0.52
2023-04-20T13:02:21.563Z,0.90
2023-04-20T13:04:53.140Z,0.80
2023-04-20T13:07:25.036Z,0.65
2023-04-20T13:09:56.587Z,1.92
2023-04-20T13:12:28.096Z,0.45
2023-04-20T13:14:59.587Z,0.80
2023-04-20T13:17:31.374Z,0.82
2023-04-20T13:20:04.635Z,1.63
2023-04-20T13:22:41.119Z,1.20
2023-04-20T13:25:22.317Z,0.70
2023-04-20T13:27:55.233Z,0.82
2023-04-20T13:30:27.066Z,0.45
2023-04-20T13:32:58.762Z,0.52
2023-04-20T13:35:30.855Z,0.63
2023-04-20T13:38:04.585Z,0.70
2023-04-20T13:40:36.235Z,0.40
2023-04-20T13:43:07.718Z,0.55
2023-04-20T13:45:39.753Z,1.65
2023-04-20T13:48:11.390Z,0.80
2023-04-20T13:50:43.038Z,0.75
2023-04-20T13:53:14.541Z,0.80
2023-04-20T13:55:46.016Z,2.42
2023-04-20T13:58:17.525Z,3.20
2023-04-20T14:00:49.080Z,0.93
2023-04-20T14:03:21.137Z,1.23
2023-04-20T14:05:52.964Z,1.40
2023-04-20T14:08:24.425Z,1.38
2023-04-20T14:10:56.200Z,1.30
2023-04-20T14:13:27.859Z,0.90
2023-04-20T14:15:59.525Z,3.10
2023-04-20T14:18:31.193Z,1.60
2023-04-20T14:21:03.031Z,1.20
2023-04-20T14:23:34.642Z,2.22
2023-04-20T14:26:06.228Z,1.17
2023-04-20T14:28:37.778Z,1.67
2023-04-20T14:31:09.329Z,1.60
2023-04-20T14:33:41.636Z,1.90
2023-04-20T14:36:13.155Z,1.95
2023-04-20T14:38:44.713Z,28.75
2023-04-20T14:41:17.152Z,1.58
2023-04-20T14:43:48.721Z,1.55
2023-04-20T14:46:20.290Z,2.03
2023-04-20T14:48:52.123Z,2.35
2023-04-20T14:51:23.595Z,1.55
2023-04-20T14:53:55.213Z,2.13
2023-04-20T14:56:26.991Z,3.33
2023-04-20T14:58:59.512Z,4.38
2023-04-20T15:01:31.053Z,2.25
2023-04-20T15:04:02.695Z,1.95
2023-04-20T15:06:37.166Z,1.73
2023-04-20T15:09:10.531Z,2.90
2023-04-20T15:11:42.055Z,4.97
2023-04-20T15:14:13.498Z,2.28
2023-04-20T15:16:45.059Z,2.78
2023-04-20T15:19:16.802Z,2.28
2023-04-20T15:21:48.927Z,3.88
2023-04-20T15:24:20.569Z,2.70
2023-04-20T15:26:52.449Z,7.13
2023-04-20T15:29:23.951Z,10.38
2023-04-20T15:31:55.650Z,13.23
2023-04-20T15:34:28.603Z,9.55
2023-04-20T15:37:00.184Z,6.05
2023-04-20T15:39:31.781Z,3.65
2023-04-20T15:42:03.476Z,3.08
2023-04-20T15:44:34.991Z,4.68
2023-04-20T15:47:06.436Z,3.60
2023-04-20T15:49:40.835Z,2.78
2023-04-20T15:52:12.474Z,3.42
2023-04-20T15:54:46.915Z,3.22
2023-04-20T15:57:18.425Z,4.30
2023-04-20T15:59:49.934Z,4.35
2023-04-20T16:02:21.595Z,3.25
2023-04-20T16:04:53.715Z,3.53
2023-04-20T16:07:25.398Z,4.43
2023-04-20T16:09:56.895Z,2.97
2023-04-20T16:12:28.588Z,3.38
2023-04-20T16:15:01.780Z,4.68
2023-04-20T16:17:33.588Z,2.88
2023-04-20T16:20:06.310Z,5.00
2023-04-20T16:22:38.013Z,5.38
2023-04-20T16:25:12.377Z,6.78
2023-04-20T16:27:44.339Z,6.47
2023-04-20T16:30:16.141Z,5.10
2023-04-20T16:32:47.860Z,6.47
2023-04-20T16:35:19.596Z,5.68
2023-04-20T16:37:51.253Z,4.20
2023-04-20T16:40:22.935Z,2.75
2023-04-20T16:42:54.646Z,2.78
2023-04-20T16:45:26.323Z,5.43
2023-04-20T16:47:58.266Z,6.35
2023-04-20T16:50:30.003Z,5.07
2023-04-20T16:53:01.679Z,6.00
2023-04-20T16:55:33.522Z,4.85
2023-04-20T16:58:05.010Z,4.35
2023-04-20T17:00:36.909Z,5.80
2023-04-20T17:03:10.751Z,3.67
2023-04-20T17:05:42.783Z,3.00
2023-04-20T17:08:14.240Z,2.78
2023-04-20T17:10:46.057Z,3.63
2023-04-20T17:13:18.263Z,6.18
2023-04-20T17:15:49.751Z,5.50
2023-04-20T17:18:21.502Z,5.50
2023-04-20T17:20:53.087Z,6.07
2023-04-20T17:23:26.388Z,5.43
2023-04-20T17:25:57.966Z,4.05
2023-04-20T17:28:29.614Z,5.05
2023-04-20T17:31:01.104Z,6.28
2023-04-20T17:33:32.980Z,5.85
2023-04-20T17:36:04.867Z,7.40
2023-04-20T17:38:36.615Z,4.38
2023-04-20T17:41:08.134Z,5.82
2023-04-20T17:43:40.522Z,6.25
2023-04-20T17:46:12.280Z,4.07
2023-04-20T17:48:43.897Z,4.50
2023-04-20T17:51:15.702Z,3.83
2023-04-20T17:53:47.208Z,2.83
2023-04-20T17:56:18.810Z,1.92
2023-04-20T17:58:50.421Z,3.28
2023-04-20T18:01:22.415Z,1.30
2023-04-20T18:03:54.559Z,0.28
2023-04-20T18:06:26.168Z,0.55
2023-04-20T18:08:58.269Z,1.45
2023-04-20T18:11:29.908Z,0.50
2023-04-20T18:14:01.626Z,0.65
2023-04-20T18:16:33.623Z,0.88
2023-04-20T18:19:05.369Z,1.42
2023-04-20T18:21:37.117Z,0.85
2023-04-20T18:24:08.637Z,1.02
2023-04-20T18:26:40.545Z,0.20
2023-04-20T18:29:12.220Z,1.00
2023-04-20T18:31:47.549Z,1.15
2023-04-20T18:36:50.805Z,0.75
2023-04-20T18:39:23.247Z,0.70
2023-04-20T18:41:54.776Z,3.08
2023-04-20T18:44:28.333Z,0.82
2023-04-20T18:47:00.177Z,0.32
2023-04-20T18:49:32.397Z,1.10
2023-04-20T18:52:04.234Z,0.70
2023-04-20T18:54:37.475Z,1.23
2023-04-20T18:57:08.984Z,1.75
2023-04-20T18:59:40.651Z,0.38
2023-04-20T19:02:13.521Z,2.65
2023-04-20T19:04:45.125Z,1.20
2023-04-20T19:07:17.613Z,1.30
2023-04-20T19:09:49.232Z,0.82
2023-04-20T19:12:21.415Z,1.25
2023-04-20T19:14:53.266Z,1.58
2023-04-20T19:17:24.745Z,0.50
2023-04-20T19:19:57.395Z,1.60
2023-04-20T19:22:28.900Z,1.58
2023-04-20T19:25:00.527Z,1.50
2023-04-20T19:27:32.050Z,3.28
2023-04-20T19:30:04.339Z,2.33
2023-04-20T19:32:36.968Z,3.55
2023-04-20T19:35:08.781Z,1.35
2023-04-20T19:37:41.228Z,3.38
2023-04-20T19:40:15.218Z,3.10
2023-04-20T19:42:48.650Z,2.90
2023-04-20T19:45:20.534Z,2.83
2023-04-20T19:47:52.428Z,3.55
2023-04-20T19:50:23.964Z,3.40
2023-04-20T19:52:55.539Z,3.55
2023-04-20T19:55:27.204Z,3.13
2023-04-20T19:57:58.949Z,3.25
2023-04-20T20:00:30.509Z,3.30
2023-04-20T20:03:03.366Z,3.50
2023-04-20T20:05:35.125Z,2.67
2023-04-20T20:08:07.043Z,1.77
2023-04-20T20:10:38.798Z,2.60
2023-04-20T20:13:10.771Z,3.13
2023-04-20T20:15:42.647Z,2.60
2023-04-20T20:18:14.350Z,2.47
2023-04-20T20:20:47.196Z,4.25
2023-04-20T20:23:18.925Z,2.33
2023-04-20T20:25:50.460Z,3.30
2023-04-20T20:28:22.037Z,3.00
2023-04-20T20:30:53.575Z,1.42
2023-04-20T20:33:28.176Z,1.40
2023-04-20T20:36:04.260Z,2.08
2023-04-20T20:38:35.933Z,1.65
2023-04-20T20:41:07.567Z,0.80
2023-04-20T20:43:42.441Z,1.08
2023-04-20T20:46:14.215Z,1.30
2023-04-20T20:48:48.664Z,0.82
2023-04-20T20:51:20.287Z,2.20
2023-04-20T20:53:52.088Z,1.33
2023-04-20T20:56:24.035Z,1.30
2023-04-20T20:58:55.824Z,2.15
2023-04-20T21:01:30.660Z,1.15
2023-04-20T21:04:04.380Z,2.05
2023-04-20T21:06:36.186Z,1.38
2023-04-20T21:09:07.758Z,2.17
2023-04-20T21:11:39.275Z,1.95
2023-04-20T21:14:11.056Z,1.20
2023-04-20T21:16:42.696Z,0.88
2023-04-20T21:19:15.327Z,1.48
2023-04-20T21:21:47.213Z,1.27
2023-04-20T21:24:19.165Z,0.40
2023-04-20T21:26:51.027Z,1.40
2023-04-20T21:29:22.622Z,1.17
2023-04-20T21:31:54.316Z,0.38
2023-04-20T21:34:26.092Z,0.77
2023-04-20T21:37:03.723Z,1.17
2023-04-20T21:39:35.357Z,1.05
2023-04-20T21:42:07.002Z,4.05
2023-04-20T21:44:38.487Z,1.20
2023-04-20T21:47:10.163Z,1.73
2023-04-20T21:49:44.546Z,2.03
2023-04-20T21:52:16.212Z,1.10
2023-04-20T21:54:47.744Z,1.98
2023-04-20T21:57:19.257Z,1.05
2023-04-20T21:59:50.842Z,2.35
2023-04-20T22:02:22.851Z,2.28
2023-04-20T22:04:55.992Z,3.28
2023-04-20T22:07:27.618Z,1.70
2023-04-20T22:10:00.020Z,2.20
2023-04-20T22:12:39.155Z,2.97
2023-04-20T22:15:13.901Z,2.05
2023-04-20T22:17:46.270Z,3.60
2023-04-20T22:20:19.487Z,4.18
2023-04-20T22:22:51.058Z,2.83
2023-04-20T22:25:24.551Z,3.20
2023-04-20T22:27:56.102Z,3.35
2023-04-20T22:30:27.824Z,4.32
2023-04-20T22:32:59.358Z,3.33
2023-04-20T22:35:33.552Z,3.85
2023-04-20T22:38:05.661Z,2.88
2023-04-20T22:40:37.303Z,3.08
2023-04-20T22:43:08.881Z,4.00
2023-04-20T22:45:41.044Z,4.32
2023-04-20T22:48:12.759Z,5.10
2023-04-20T22:50:44.291Z,3.95
2023-04-20T22:53:17.858Z,4.13
2023-04-20T22:55:49.419Z,3.10
2023-04-20T22:58:20.889Z,4.13
2023-04-20T23:00:52.440Z,4.25
2023-04-20T23:03:24.096Z,3.90
2023-04-20T23:05:57.327Z,4.82
2023-04-20T23:08:39.700Z,4.22
2023-04-20T23:11:11.630Z,5.00
2023-04-20T23:13:43.379Z,5.13
2023-04-20T23:16:15.054Z,6.25
2023-04-20T23:18:46.632Z,5.97
2023-04-20T23:21:21.382Z,4.50
2023-04-20T23:23:52.950Z,4.07
2023-04-20T23:26:25.010Z,5.47
2023-04-20T23:28:59.689Z,5.32
2023-04-20T23:31:31.475Z,4.05
2023-04-20T23:34:03.079Z,3.42
2023-04-20T23:36:34.771Z,2.78
2023-04-20T23:39:06.667Z,3.72
2023-04-20T23:41:38.206Z,2.03
2023-04-20T23:44:09.749Z,2.42
2023-04-20T23:46:41.306Z,4.35
2023-04-20T23:49:12.909Z,3.42
2023-04-20T23:51:44.685Z,3.95
2023-04-20T23:54:16.457Z,3.65
2023-04-20T23:56:47.969Z,4.60
2023-04-20T23:59:19.722Z,4.13
